Collegeville, MN (56321)

1:23 PM CDT on August 28, 2016 (GMT -0500)
Saint Johns University Campus | | Change Station

Elev 1200 ft 45.58 °N, 94.39 °W | Updated 41 seconds ago

Overcast
Overcast
74.1 °F
Feels Like 73 °F
N
0.9
Wind Variable Wind from SW
Gusts 3.5 mph

Today
High -- | Low -- °F
--% Chance of Precip.
Yesterday
High -- | Low -- °F
Precip. -- in
Pressure 30.14 in
Visibility 9.0 miles
Clouds Overcast 800 ft
Heat Index 73 °F
Dew Point 71 °F
Humidity 89%
Rainfall 0.09 in
Snow Depth Not available.
6:34 AM 8:01 PM
Waning Crescent, 14% visible
METAR KSTC 281753Z 13007KT 9SM OVC008 22/20 A3012 RMK AO2 SLP207 60006 T02170200 10217 20156 58001
Pressure 30.14 in
Visibility 9.0 miles
Clouds Overcast 800 ft
Heat Index 73 °F
Dew Point 71 °F
Humidity 89%
Rainfall 0.09 in
Snow Depth Not available.
6:34 AM 8:01 PM
Waning Crescent, 14% visible
METAR KSTC 281753Z 13007KT 9SM OVC008 22/20 A3012 RMK AO2 SLP207 60006 T02170200 10217 20156 58001

10-Day Weather Forecast

Almanac

Astronomy

Aug. 28, 2016 Rise Set
Actual Time
Civil Twilight
Nautical Twilight
Astronomical Twilight
Moon
Length of Visible Light
Length of Day
Tomorrow will be .
, % of the Moon is Illuminated

Today's Extremes

State Highs State Lows

Community

WunderPhotos

Upload Photos

1,935,644 photos uploaded!

WunderBlog® & News

Nearby

Air Quality

  Air Quality AQ Index Pollutant
Not available.

Snow Depth

Station Depth Elevation

Earthquake Activity

City Distance Mag. Time & Date
Minimum magnitude displayed is 2.5.

Coastal Water Temperatures

Place Temperature

Stations

Nearby Weather Stations

Station Location Temp. Windchill Dew Point Humidity Wind Precip. Elev Updated Type
                   

Watches & Warnings

There are currently no watches in effect.